createdAt,value
2022-08-25T00:02:01.952Z,2.70
2022-08-25T00:04:31.815Z,3.17
2022-08-25T00:07:03.988Z,2.28
2022-08-25T00:09:34.131Z,2.50
2022-08-25T00:12:03.456Z,2.33
2022-08-25T00:14:38.536Z,2.22
2022-08-25T00:17:07.446Z,2.40
2022-08-25T00:19:38.044Z,2.47
2022-08-25T00:22:09.425Z,2.33
2022-08-25T00:24:38.211Z,2.20
2022-08-25T00:27:06.756Z,2.67
2022-08-25T00:29:38.029Z,2.05
2022-08-25T00:32:07.627Z,2.20
2022-08-25T00:34:39.235Z,2.55
2022-08-25T00:37:10.558Z,2.97
2022-08-25T00:39:39.927Z,2.63
2022-08-25T00:42:11.850Z,2.67
2022-08-25T00:44:45.104Z,2.95
2022-08-25T00:47:13.487Z,2.45
2022-08-25T00:49:45.849Z,2.60
2022-08-25T00:52:19.387Z,3.30
2022-08-25T00:54:51.059Z,2.60
2022-08-25T00:57:34.573Z,2.65
2022-08-25T01:00:11.391Z,2.70
2022-08-25T01:02:39.829Z,2.53
2022-08-25T01:05:08.748Z,3.00
2022-08-25T01:07:39.018Z,3.08
2022-08-25T01:10:08.932Z,3.08
2022-08-25T01:12:37.742Z,3.28
2022-08-25T01:15:08.904Z,3.08
2022-08-25T01:17:46.016Z,3.00
2022-08-25T01:20:14.863Z,3.10
2022-08-25T01:22:44.398Z,3.40
2022-08-25T01:25:26.682Z,3.22
2022-08-25T01:27:54.926Z,3.50
2022-08-25T01:30:23.260Z,3.13
2022-08-25T01:32:51.683Z,2.92
2022-08-25T01:35:19.956Z,3.60
2022-08-25T01:37:49.776Z,3.50
2022-08-25T01:40:18.118Z,3.80
2022-08-25T01:43:07.525Z,3.22
2022-08-25T01:45:36.982Z,3.85
2022-08-25T01:48:06.623Z,3.80
2022-08-25T01:50:35.890Z,3.63
2022-08-25T01:53:09.794Z,3.70
2022-08-25T01:55:52.890Z,3.65
2022-08-25T01:58:25.833Z,3.53
2022-08-25T02:00:57.426Z,3.70
2022-08-25T02:03:27.188Z,3.58
2022-08-25T02:05:59.041Z,3.85
2022-08-25T02:08:28.744Z,3.60
2022-08-25T02:10:56.833Z,3.78
2022-08-25T02:13:27.008Z,3.67
2022-08-25T02:16:01.858Z,4.13
2022-08-25T02:18:30.439Z,4.32
2022-08-25T02:20:59.142Z,3.60
2022-08-25T02:23:28.733Z,3.90
2022-08-25T02:25:58.205Z,3.95
2022-08-25T02:28:27.019Z,4.15
2022-08-25T02:31:00.130Z,4.00
2022-08-25T02:33:30.061Z,4.25
2022-08-25T02:36:00.039Z,4.32
2022-08-25T02:38:30.322Z,4.00
2022-08-25T02:40:59.808Z,4.57
2022-08-25T02:43:29.693Z,3.88
2022-08-25T02:45:58.102Z,4.10
2022-08-25T02:48:26.263Z,4.00
2022-08-25T02:50:54.515Z,3.90
2022-08-25T02:53:23.380Z,3.92
2022-08-25T02:55:53.107Z,4.28
2022-08-25T02:58:21.584Z,4.55
2022-08-25T03:00:50.638Z,4.30
2022-08-25T03:03:18.996Z,4.05
2022-08-25T03:05:47.870Z,4.38
2022-08-25T03:08:16.733Z,4.47
2022-08-25T03:10:44.952Z,4.47
2022-08-25T03:13:17.206Z,4.60
2022-08-25T03:15:46.213Z,4.55
2022-08-25T03:18:17.730Z,4.75
2022-08-25T03:20:46.292Z,4.63
2022-08-25T03:23:15.108Z,4.75
2022-08-25T03:26:01.893Z,5.07
2022-08-25T03:28:33.097Z,5.00
2022-08-25T03:31:01.920Z,4.75
2022-08-25T03:33:31.338Z,4.97
2022-08-25T03:36:00.605Z,4.93
2022-08-25T03:38:29.541Z,5.10
2022-08-25T03:40:58.068Z,4.70
2022-08-25T03:43:26.429Z,5.82
2022-08-25T03:45:56.249Z,5.95
2022-08-25T03:48:25.091Z,5.45
2022-08-25T03:50:54.817Z,6.22
2022-08-25T03:53:23.906Z,5.82
2022-08-25T03:55:52.214Z,5.78
2022-08-25T03:58:20.347Z,6.63
2022-08-25T04:00:48.598Z,6.55
2022-08-25T04:03:19.271Z,5.97
2022-08-25T04:05:47.649Z,6.57
2022-08-25T04:08:16.139Z,7.13
2022-08-25T04:10:48.094Z,7.00
2022-08-25T04:13:16.154Z,7.20
2022-08-25T04:15:45.734Z,6.97
2022-08-25T04:18:14.045Z,7.15
2022-08-25T04:20:46.744Z,7.13
2022-08-25T04:23:15.327Z,7.53
2022-08-25T04:25:43.424Z,7.38
2022-08-25T04:28:14.430Z,7.07
2022-08-25T04:30:49.084Z,7.53
2022-08-25T04:33:19.840Z,7.80
2022-08-25T04:35:52.609Z,7.70
2022-08-25T04:38:20.809Z,7.43
2022-08-25T04:40:57.433Z,7.15
2022-08-25T04:43:25.788Z,8.00
2022-08-25T04:45:55.789Z,8.25
2022-08-25T04:48:25.106Z,8.18
2022-08-25T04:50:54.580Z,8.00
2022-08-25T04:53:23.019Z,7.90
2022-08-25T04:55:51.367Z,8.00
2022-08-25T04:58:19.423Z,7.85
2022-08-25T05:00:47.905Z,8.25
2022-08-25T05:03:17.408Z,8.40
2022-08-25T05:05:45.631Z,8.25
2022-08-25T05:08:15.136Z,8.15
2022-08-25T05:10:43.287Z,8.60
2022-08-25T05:13:12.095Z,8.18
2022-08-25T05:15:52.062Z,7.88
2022-08-25T05:18:22.733Z,7.93
2022-08-25T05:20:51.544Z,8.68
2022-08-25T05:23:21.835Z,8.10
2022-08-25T05:25:50.996Z,8.13
2022-08-25T05:28:19.584Z,7.93
2022-08-25T05:30:49.905Z,7.63
2022-08-25T05:33:18.631Z,7.50
2022-08-25T05:35:46.853Z,8.23
2022-08-25T05:38:15.229Z,8.32
2022-08-25T05:40:45.163Z,8.57
2022-08-25T05:43:14.765Z,8.68
2022-08-25T05:45:43.033Z,7.20
2022-08-25T05:48:11.526Z,7.85
2022-08-25T05:50:39.725Z,8.05
2022-08-25T05:53:07.931Z,8.68
2022-08-25T05:55:35.993Z,7.72
2022-08-25T05:58:06.675Z,7.82
2022-08-25T06:00:41.701Z,7.28
2022-08-25T06:03:09.127Z,7.72
2022-08-25T06:05:37.249Z,8.10
2022-08-25T06:08:05.992Z,7.70
2022-08-25T06:10:34.800Z,7.60
2022-08-25T06:13:06.517Z,7.90
2022-08-25T06:15:34.943Z,8.13
2022-08-25T06:18:03.584Z,7.07
2022-08-25T06:20:32.943Z,7.55
2022-08-25T06:23:01.439Z,7.93
2022-08-25T06:25:32.996Z,7.95
2022-08-25T06:28:01.095Z,8.80
2022-08-25T06:30:31.262Z,6.47
2022-08-25T06:32:59.571Z,7.40
2022-08-25T06:35:28.149Z,6.60
2022-08-25T06:37:56.493Z,7.22
2022-08-25T06:40:26.153Z,7.03
2022-08-25T06:42:54.542Z,6.22
2022-08-25T06:45:22.712Z,5.38
2022-08-25T06:47:52.932Z,6.18
2022-08-25T06:50:21.701Z,5.32
2022-08-25T06:52:49.755Z,4.47
2022-08-25T06:55:17.880Z,4.80
2022-08-25T06:57:46.842Z,5.75
2022-08-25T07:00:15.363Z,4.30
2022-08-25T07:02:43.645Z,5.90
2022-08-25T07:05:26.728Z,5.60
2022-08-25T07:07:55.898Z,4.38
2022-08-25T07:10:24.242Z,4.82
2022-08-25T07:12:52.754Z,6.07
2022-08-25T07:15:21.141Z,6.10
2022-08-25T07:17:50.887Z,5.07
2022-08-25T07:20:20.685Z,4.30
2022-08-25T07:22:49.697Z,5.05
2022-08-25T07:25:18.507Z,4.38
2022-08-25T07:27:47.014Z,4.30
2022-08-25T07:30:15.231Z,4.65
2022-08-25T07:32:43.608Z,4.38
2022-08-25T07:35:19.045Z,4.18
2022-08-25T07:37:51.616Z,4.13
2022-08-25T07:40:22.628Z,3.75
2022-08-25T07:42:53.134Z,4.82
2022-08-25T07:45:25.429Z,4.00
2022-08-25T07:47:53.995Z,3.30
2022-08-25T07:50:22.701Z,3.60
2022-08-25T07:52:55.095Z,4.75
2022-08-25T07:55:24.307Z,3.70
2022-08-25T07:57:54.100Z,4.85
2022-08-25T08:00:27.802Z,4.63
2022-08-25T08:02:57.159Z,3.85
2022-08-25T08:05:26.338Z,3.80
2022-08-25T08:07:56.846Z,3.92
2022-08-25T08:10:48.103Z,3.55
2022-08-25T08:13:18.108Z,3.10
2022-08-25T08:15:47.787Z,3.10
2022-08-25T08:18:16.989Z,3.72
2022-08-25T08:20:47.830Z,3.25
2022-08-25T08:23:18.201Z,4.05
2022-08-25T08:25:48.189Z,3.60
2022-08-25T08:28:16.404Z,3.67
2022-08-25T08:30:53.343Z,4.07
2022-08-25T08:33:24.424Z,3.55
2022-08-25T08:36:05.126Z,3.97
2022-08-25T08:38:35.774Z,3.10
2022-08-25T08:41:33.913Z,3.72
2022-08-25T08:44:20.637Z,3.65
2022-08-25T08:46:56.644Z,3.30
2022-08-25T08:49:31.735Z,3.47
2022-08-25T08:52:03.136Z,4.03
2022-08-25T08:54:36.983Z,3.88
2022-08-25T08:57:10.755Z,3.70
2022-08-25T08:59:47.217Z,3.88
2022-08-25T09:02:50.278Z,4.05
2022-08-25T09:05:20.033Z,2.97
2022-08-25T09:07:55.081Z,3.00
2022-08-25T09:10:29.993Z,2.67
2022-08-25T09:13:11.968Z,2.42
2022-08-25T09:16:06.960Z,2.38
2022-08-25T09:18:51.194Z,3.78
2022-08-25T09:21:28.139Z,2.83
2022-08-25T09:24:14.103Z,2.95
2022-08-25T09:26:55.836Z,2.95
2022-08-25T09:29:27.355Z,3.17
2022-08-25T09:32:01.368Z,2.90
2022-08-25T09:34:35.329Z,2.70
2022-08-25T09:37:06.495Z,2.70
2022-08-25T09:42:50.710Z,3.60
2022-08-25T09:45:36.997Z,2.50
2022-08-25T09:48:22.542Z,3.50
2022-08-25T09:50:52.552Z,2.63
2022-08-25T09:53:22.043Z,2.70
2022-08-25T09:56:00.313Z,3.47
2022-08-25T09:58:30.226Z,3.13
2022-08-25T10:01:08.286Z,2.60
2022-08-25T10:03:36.959Z,3.00
2022-08-25T10:06:12.965Z,2.70
2022-08-25T10:08:52.801Z,2.90
2022-08-25T10:11:34.294Z,2.83
2022-08-25T10:14:06.789Z,3.13
2022-08-25T10:16:36.831Z,2.92
2022-08-25T10:19:09.984Z,3.80
2022-08-25T10:21:40.085Z,3.10
2022-08-25T10:24:10.149Z,2.92
2022-08-25T10:26:49.970Z,3.05
2022-08-25T10:29:42.151Z,3.15
2022-08-25T10:34:51.569Z,2.97
2022-08-25T10:37:35.902Z,3.28
2022-08-25T10:40:16.830Z,2.88
2022-08-25T10:42:56.136Z,2.80
2022-08-25T10:45:45.879Z,2.42
2022-08-25T10:48:33.240Z,3.00
2022-08-25T10:51:08.962Z,2.63
2022-08-25T10:53:51.289Z,2.78
2022-08-25T10:56:24.061Z,2.33
2022-08-25T10:59:15.884Z,2.50
2022-08-25T11:02:11.405Z,2.53
2022-08-25T11:04:45.175Z,2.85
2022-08-25T11:07:26.188Z,2.33
2022-08-25T11:09:59.222Z,2.65
2022-08-25T11:12:31.520Z,2.75
2022-08-25T11:15:04.207Z,2.83
2022-08-25T11:17:43.665Z,2.70
2022-08-25T11:20:19.932Z,2.65
2022-08-25T11:23:11.445Z,2.70
2022-08-25T11:25:44.440Z,2.25
2022-08-25T11:28:17.297Z,2.65
2022-08-25T11:30:46.403Z,3.22
2022-08-25T11:33:19.477Z,3.05
2022-08-25T11:35:52.254Z,2.67
2022-08-25T11:38:35.108Z,3.10
2022-08-25T11:41:16.167Z,2.95
2022-08-25T11:44:02.672Z,2.55
2022-08-25T11:46:45.637Z,2.47
2022-08-25T11:49:35.722Z,2.88
2022-08-25T11:52:08.321Z,2.45
2022-08-25T11:54:41.771Z,3.03
2022-08-25T11:57:19.540Z,3.08
2022-08-25T12:00:08.374Z,2.95
2022-08-25T12:02:42.588Z,2.83
2022-08-25T12:05:52.354Z,2.67
2022-08-25T12:08:57.575Z,3.28
2022-08-25T12:11:56.244Z,3.10
2022-08-25T12:14:48.572Z,3.33
2022-08-25T12:17:37.780Z,3.00
2022-08-25T12:20:08.969Z,3.00
2022-08-25T12:22:57.830Z,2.90
2022-08-25T12:25:46.941Z,2.72
2022-08-25T12:28:48.226Z,2.92
2022-08-25T12:31:24.489Z,3.10
2022-08-25T12:34:05.396Z,3.80
2022-08-25T12:36:35.911Z,3.20
2022-08-25T12:39:19.059Z,3.20
2022-08-25T12:41:58.022Z,2.90
2022-08-25T12:44:44.084Z,3.60
2022-08-25T12:47:27.530Z,2.85
2022-08-25T12:50:36.203Z,3.65
2022-08-25T12:53:13.081Z,3.17
2022-08-25T12:55:47.487Z,3.08
2022-08-25T12:58:18.136Z,3.05
2022-08-25T13:01:17.379Z,3.38
2022-08-25T13:04:32.646Z,3.70
2022-08-25T13:07:24.217Z,2.97
2022-08-25T13:10:20.054Z,3.58
2022-08-25T13:12:54.090Z,3.05
2022-08-25T13:15:34.321Z,3.13
2022-08-25T13:18:22.088Z,3.30
2022-08-25T13:20:54.044Z,3.55
2022-08-25T13:23:27.180Z,3.53
2022-08-25T13:25:59.198Z,3.10
2022-08-25T13:28:32.357Z,3.33
2022-08-25T13:31:05.453Z,3.33
2022-08-25T13:36:20.604Z,3.58
2022-08-25T13:38:50.471Z,3.10
2022-08-25T13:41:27.301Z,3.60
2022-08-25T13:44:01.171Z,3.45
2022-08-25T13:46:31.905Z,3.83
2022-08-25T13:49:06.253Z,3.38
2022-08-25T13:51:35.295Z,3.60
2022-08-25T13:54:06.611Z,3.40
2022-08-25T13:56:41.208Z,4.15
2022-08-25T13:59:23.296Z,3.60
2022-08-25T14:01:53.390Z,3.80
2022-08-25T14:04:25.283Z,3.63
2022-08-25T14:07:19.327Z,3.90
2022-08-25T14:09:51.620Z,4.40
2022-08-25T14:12:36.276Z,3.70
2022-08-25T14:15:10.688Z,4.50
2022-08-25T14:17:42.643Z,3.90
2022-08-25T14:20:21.946Z,3.95
2022-08-25T14:22:54.678Z,3.97
2022-08-25T14:25:22.968Z,4.32
2022-08-25T14:28:13.779Z,3.88
2022-08-25T14:30:47.234Z,4.60
2022-08-25T14:33:19.789Z,4.20
2022-08-25T14:35:54.932Z,3.90
2022-08-25T14:38:24.025Z,4.20
2022-08-25T14:40:52.380Z,4.15
2022-08-25T14:43:24.087Z,4.40
2022-08-25T14:46:03.191Z,4.65
2022-08-25T14:48:35.953Z,4.60
2022-08-25T14:51:05.492Z,4.28
2022-08-25T14:53:34.408Z,3.78
2022-08-25T14:56:05.385Z,4.05
2022-08-25T14:58:51.108Z,4.05
2022-08-25T15:01:29.029Z,4.10
2022-08-25T15:04:02.290Z,3.90
2022-08-25T15:06:31.467Z,3.63
2022-08-25T15:09:13.939Z,3.92
2022-08-25T15:11:44.499Z,4.20
2022-08-25T15:14:15.600Z,4.40
2022-08-25T15:16:47.561Z,4.85
2022-08-25T15:19:37.751Z,4.90
2022-08-25T15:22:06.036Z,4.47
2022-08-25T15:24:37.751Z,3.80
2022-08-25T15:27:10.138Z,3.95
2022-08-25T15:29:38.693Z,3.90
2022-08-25T15:32:10.059Z,4.40
2022-08-25T15:34:38.789Z,4.40
2022-08-25T15:37:09.784Z,4.10
2022-08-25T15:39:38.621Z,4.30
2022-08-25T15:42:07.451Z,4.38
2022-08-25T15:44:36.227Z,4.22
2022-08-25T15:47:07.883Z,4.90
2022-08-25T15:49:40.763Z,4.22
2022-08-25T15:52:09.834Z,4.72
2022-08-25T15:54:37.962Z,4.55
2022-08-25T15:57:09.149Z,4.60
2022-08-25T15:59:41.703Z,4.85
2022-08-25T16:02:15.135Z,4.07
2022-08-25T16:04:43.836Z,4.32
2022-08-25T16:07:13.328Z,4.70
2022-08-25T16:09:42.577Z,4.47
2022-08-25T16:12:12.951Z,4.53
2022-08-25T16:14:41.465Z,4.53
2022-08-25T16:17:11.128Z,4.32
2022-08-25T16:19:39.538Z,4.65
2022-08-25T16:22:08.894Z,4.63
2022-08-25T16:24:40.184Z,4.30
2022-08-25T16:27:12.098Z,4.43
2022-08-25T16:29:45.560Z,4.82
2022-08-25T16:32:16.143Z,4.82
2022-08-25T16:34:44.678Z,4.03
2022-08-25T16:37:13.632Z,4.35
2022-08-25T16:39:45.383Z,4.40
2022-08-25T16:42:14.251Z,4.68
2022-08-25T16:44:42.390Z,4.57
2022-08-25T16:47:14.030Z,4.65
2022-08-25T16:49:44.132Z,4.47
2022-08-25T16:52:28.591Z,4.93
2022-08-25T16:55:16.267Z,4.57
2022-08-25T16:57:47.497Z,4.57
2022-08-25T17:00:19.645Z,4.20
2022-08-25T17:02:48.285Z,4.50
2022-08-25T17:05:18.804Z,4.07
2022-08-25T17:08:07.604Z,4.07
2022-08-25T17:10:38.103Z,4.18
2022-08-25T17:13:06.810Z,4.03
2022-08-25T17:15:35.319Z,4.13
2022-08-25T17:18:03.401Z,3.85
2022-08-25T17:20:34.686Z,4.18
2022-08-25T17:23:03.484Z,4.13
2022-08-25T17:25:42.912Z,4.70
2022-08-25T17:28:12.558Z,4.30
2022-08-25T17:30:41.654Z,4.13
2022-08-25T17:33:09.776Z,4.40
2022-08-25T17:35:41.638Z,4.53
2022-08-25T17:38:10.095Z,4.72
2022-08-25T17:40:38.484Z,4.25
2022-08-25T17:43:09.038Z,4.18
2022-08-25T17:45:38.134Z,4.13
2022-08-25T17:48:08.517Z,4.47
2022-08-25T17:50:37.276Z,4.00
2022-08-25T17:53:09.307Z,4.55
2022-08-25T17:55:38.385Z,4.40
2022-08-25T17:58:06.862Z,4.40
2022-08-25T18:00:37.945Z,4.45
2022-08-25T18:03:12.359Z,3.95
2022-08-25T18:05:41.501Z,4.50
2022-08-25T18:08:11.054Z,4.40
2022-08-25T18:10:39.487Z,4.80
2022-08-25T18:13:07.653Z,6.15
2022-08-25T18:15:36.163Z,10.82
2022-08-25T18:18:04.812Z,7.45
2022-08-25T18:20:33.503Z,10.07
2022-08-25T18:23:01.707Z,6.38
2022-08-25T18:25:31.697Z,4.65
2022-08-25T18:27:59.900Z,4.78
2022-08-25T18:30:28.214Z,4.63
2022-08-25T18:32:57.787Z,5.05
2022-08-25T18:35:26.659Z,4.82
2022-08-25T18:38:12.359Z,5.15
2022-08-25T18:40:42.768Z,4.38
2022-08-25T18:43:14.472Z,5.38
2022-08-25T18:45:47.745Z,4.68
2022-08-25T18:48:17.294Z,4.57
2022-08-25T18:50:51.823Z,5.05
2022-08-25T18:53:30.538Z,5.20
2022-08-25T18:56:11.732Z,5.22
2022-08-25T18:58:40.249Z,5.10
2022-08-25T19:01:09.324Z,5.07
2022-08-25T19:03:39.833Z,4.75
2022-08-25T19:06:08.581Z,5.30
2022-08-25T19:08:39.618Z,4.75
2022-08-25T19:11:11.807Z,4.78
2022-08-25T19:13:41.235Z,4.95
2022-08-25T19:16:11.879Z,4.78
2022-08-25T19:18:41.458Z,4.95
2022-08-25T19:21:10.462Z,5.35
2022-08-25T19:23:39.135Z,5.57
2022-08-25T19:26:16.859Z,4.68
2022-08-25T19:28:48.944Z,5.00
2022-08-25T19:31:19.375Z,5.05
2022-08-25T19:33:49.042Z,5.47
2022-08-25T19:36:19.033Z,4.70
2022-08-25T19:38:52.327Z,4.97
2022-08-25T19:41:20.929Z,4.95
2022-08-25T19:43:56.757Z,5.53
2022-08-25T19:46:32.937Z,4.60
2022-08-25T19:49:07.936Z,5.07
2022-08-25T19:51:38.042Z,5.68
2022-08-25T19:54:09.230Z,5.30
2022-08-25T19:56:53.841Z,4.57
2022-08-25T19:59:26.870Z,4.88
2022-08-25T20:02:05.935Z,4.88
2022-08-25T20:04:35.160Z,5.18
2022-08-25T20:07:03.756Z,4.82
2022-08-25T20:09:39.490Z,4.80
2022-08-25T20:12:11.727Z,5.05
2022-08-25T20:14:41.827Z,5.10
2022-08-25T20:17:23.482Z,5.32
2022-08-25T20:19:54.392Z,4.95
2022-08-25T20:22:26.100Z,4.80
2022-08-25T20:24:55.804Z,4.88
2022-08-25T20:27:28.967Z,5.00
2022-08-25T20:29:58.307Z,4.30
2022-08-25T20:32:26.662Z,4.88
2022-08-25T20:34:57.187Z,4.47
2022-08-25T20:37:26.555Z,5.00
2022-08-25T20:39:55.004Z,4.82
2022-08-25T20:42:23.468Z,4.70
2022-08-25T20:44:51.534Z,5.40
2022-08-25T20:47:22.674Z,5.18
2022-08-25T20:49:50.970Z,5.43
2022-08-25T20:52:21.092Z,5.40
2022-08-25T20:54:51.245Z,5.90
2022-08-25T20:57:25.621Z,5.50
2022-08-25T20:59:55.536Z,5.60
2022-08-25T21:02:26.376Z,5.55
2022-08-25T21:04:57.072Z,5.00
2022-08-25T21:07:26.248Z,5.25
2022-08-25T21:09:56.617Z,4.90
2022-08-25T21:12:24.880Z,5.20
2022-08-25T21:14:55.225Z,5.22
2022-08-25T21:17:24.922Z,5.13
2022-08-25T21:19:53.602Z,5.82
2022-08-25T21:22:21.768Z,5.00
2022-08-25T21:24:51.552Z,5.65
2022-08-25T21:27:19.933Z,4.90
2022-08-25T21:29:54.358Z,5.65
2022-08-25T21:32:24.950Z,5.00
2022-08-25T21:34:54.829Z,5.07
2022-08-25T21:37:23.642Z,5.47
2022-08-25T21:39:52.791Z,5.32
2022-08-25T21:42:22.519Z,5.10
2022-08-25T21:44:51.038Z,5.97
2022-08-25T21:47:21.213Z,5.20
2022-08-25T21:49:51.313Z,5.15
2022-08-25T21:52:20.922Z,5.13
2022-08-25T21:54:48.986Z,5.35
2022-08-25T21:57:19.112Z,5.82
2022-08-25T21:59:54.167Z,5.18
2022-08-25T22:02:24.008Z,5.13
2022-08-25T22:04:54.663Z,5.50
2022-08-25T22:07:24.944Z,5.22
2022-08-25T22:09:53.951Z,5.50
2022-08-25T22:12:22.100Z,5.38
2022-08-25T22:14:51.201Z,5.75
2022-08-25T22:17:21.065Z,5.40
2022-08-25T22:19:54.347Z,5.13
2022-08-25T22:22:23.078Z,5.18
2022-08-25T22:24:53.067Z,5.22
2022-08-25T22:27:23.603Z,5.47
2022-08-25T22:29:53.018Z,5.70
2022-08-25T22:32:21.639Z,5.70
2022-08-25T22:34:49.989Z,5.47
2022-08-25T22:37:19.459Z,5.72
2022-08-25T22:39:48.069Z,5.07
2022-08-25T22:42:16.561Z,5.28
2022-08-25T22:44:44.603Z,5.00
2022-08-25T22:47:12.888Z,6.00
2022-08-25T22:49:41.434Z,5.90
2022-08-25T22:52:12.705Z,5.80
2022-08-25T22:54:42.889Z,5.90
2022-08-25T22:57:12.142Z,6.30
2022-08-25T22:59:40.539Z,5.95
2022-08-25T23:02:09.282Z,6.20
2022-08-25T23:04:41.588Z,5.40
2022-08-25T23:07:12.802Z,5.40
2022-08-25T23:09:44.015Z,5.30
2022-08-25T23:12:13.310Z,5.40
2022-08-25T23:14:42.357Z,5.72
2022-08-25T23:17:12.587Z,5.90
2022-08-25T23:19:40.877Z,6.38
2022-08-25T23:22:11.116Z,5.55
2022-08-25T23:24:43.714Z,5.95
2022-08-25T23:27:13.677Z,5.97
2022-08-25T23:29:45.133Z,5.70
2022-08-25T23:32:14.658Z,6.13
2022-08-25T23:34:46.647Z,6.40
2022-08-25T23:37:18.765Z,6.13
2022-08-25T23:39:49.998Z,6.35
2022-08-25T23:42:19.839Z,5.85
2022-08-25T23:44:48.522Z,5.95
2022-08-25T23:47:17.957Z,6.30
2022-08-25T23:49:48.208Z,6.82
2022-08-25T23:52:17.440Z,6.57
2022-08-25T23:54:46.536Z,6.75
2022-08-25T23:57:16.115Z,6.15
2022-08-25T23:59:47.060Z,6.57
